sensor_id;sensor_type;location;lat;lon;timestamp;temperature;humidity
2935;DHT22;2462;51.456;7.248;2023-03-25T00:02:14;15.70;99.90
2935;DHT22;2462;51.456;7.248;2023-03-25T00:04:41;15.80;99.90
2935;DHT22;2462;51.456;7.248;2023-03-25T00:07:06;15.70;99.90
2935;DHT22;2462;51.456;7.248;2023-03-25T00:09:32;15.70;99.90
2935;DHT22;2462;51.456;7.248;2023-03-25T00:11:57;15.70;99.90
2935;DHT22;2462;51.456;7.248;2023-03-25T00:14:23;15.70;99.90
2935;DHT22;2462;51.456;7.248;2023-03-25T00:16:51;15.70;99.90
2935;DHT22;2462;51.456;7.248;2023-03-25T00:19:18;15.70;99.90
2935;DHT22;2462;51.456;7.248;2023-03-25T00:21:48;15.70;99.90
2935;DHT22;2462;51.456;7.248;2023-03-25T00:24:15;15.70;99.90
2935;DHT22;2462;51.456;7.248;2023-03-25T00:26:48;15.70;99.90
2935;DHT22;2462;51.456;7.248;2023-03-25T00:29:14;15.70;99.90
2935;DHT22;2462;51.456;7.248;2023-03-25T00:31:40;15.70;99.90
2935;DHT22;2462;51.456;7.248;2023-03-25T00:34:07;15.70;99.90
2935;DHT22;2462;51.456;7.248;2023-03-25T00:36:33;15.60;99.90
2935;DHT22;2462;51.456;7.248;2023-03-25T00:39:05;15.60;99.90
2935;DHT22;2462;51.456;7.248;2023-03-25T00:41:30;15.60;99.90
2935;DHT22;2462;51.456;7.248;2023-03-25T00:43:58;15.60;99.90
2935;DHT22;2462;51.456;7.248;2023-03-25T00:46:25;15.60;99.90
2935;DHT22;2462;51.456;7.248;2023-03-25T00:48:52;15.60;99.90
2935;DHT22;2462;51.456;7.248;2023-03-25T00:51:19;15.60;99.90
2935;DHT22;2462;51.456;7.248;2023-03-25T00:53:47;15.60;99.90
2935;DHT22;2462;51.456;7.248;2023-03-25T00:56:16;15.60;99.90
2935;DHT22;2462;51.456;7.248;2023-03-25T00:58:42;15.60;99.90
2935;DHT22;2462;51.456;7.248;2023-03-25T01:01:12;15.60;99.90
2935;DHT22;2462;51.456;7.248;2023-03-25T01:03:42;15.60;99.90
2935;DHT22;2462;51.456;7.248;2023-03-25T01:06:15;15.50;99.90
2935;DHT22;2462;51.456;7.248;2023-03-25T01:08:42;15.50;99.90
2935;DHT22;2462;51.456;7.248;2023-03-25T01:11:20;15.50;99.90
2935;DHT22;2462;51.456;7.248;2023-03-25T01:13:46;15.50;99.90
2935;DHT22;2462;51.456;7.248;2023-03-25T01:16:12;15.50;99.90
2935;DHT22;2462;51.456;7.248;2023-03-25T01:18:38;15.50;99.90
2935;DHT22;2462;51.456;7.248;2023-03-25T01:21:04;15.50;99.90
2935;DHT22;2462;51.456;7.248;2023-03-25T01:23:30;15.50;99.90
2935;DHT22;2462;51.456;7.248;2023-03-25T01:25:56;15.50;99.90
2935;DHT22;2462;51.456;7.248;2023-03-25T01:28:21;15.50;99.90
2935;DHT22;2462;51.456;7.248;2023-03-25T01:30:47;15.50;99.90
2935;DHT22;2462;51.456;7.248;2023-03-25T01:33:13;15.40;99.90
2935;DHT22;2462;51.456;7.248;2023-03-25T01:35:38;15.50;99.90
2935;DHT22;2462;51.456;7.248;2023-03-25T01:38:04;15.50;99.90
2935;DHT22;2462;51.456;7.248;2023-03-25T01:40:29;15.50;99.90
2935;DHT22;2462;51.456;7.248;2023-03-25T01:42:55;15.40;99.90
2935;DHT22;2462;51.456;7.248;2023-03-25T01:47:48;15.40;99.90
2935;DHT22;2462;51.456;7.248;2023-03-25T01:50:17;15.40;99.90
2935;DHT22;2462;51.456;7.248;2023-03-25T01:52:45;15.40;99.90
2935;DHT22;2462;51.456;7.248;2023-03-25T01:55:12;15.40;99.90
2935;DHT22;2462;51.456;7.248;2023-03-25T01:57:40;15.40;99.90
2935;DHT22;2462;51.456;7.248;2023-03-25T02:00:08;15.40;99.90
2935;DHT22;2462;51.456;7.248;2023-03-25T02:02:34;15.40;99.90
2935;DHT22;2462;51.456;7.248;2023-03-25T02:05:07;15.40;99.90
2935;DHT22;2462;51.456;7.248;2023-03-25T02:07:38;15.40;99.90
2935;DHT22;2462;51.456;7.248;2023-03-25T02:10:08;15.40;99.90
2935;DHT22;2462;51.456;7.248;2023-03-25T02:12:34;15.40;99.90
2935;DHT22;2462;51.456;7.248;2023-03-25T02:15:02;15.40;99.90
2935;DHT22;2462;51.456;7.248;2023-03-25T02:23:33;15.40;99.90
2935;DHT22;2462;51.456;7.248;2023-03-25T02:37:31;15.30;99.90
2935;DHT22;2462;51.456;7.248;2023-03-25T02:40:33;15.30;99.90
2935;DHT22;2462;51.456;7.248;2023-03-25T02:43:11;15.30;99.90
2935;DHT22;2462;51.456;7.248;2023-03-25T02:45:45;15.30;99.90
2935;DHT22;2462;51.456;7.248;2023-03-25T02:48:41;15.30;99.90
2935;DHT22;2462;51.456;7.248;2023-03-25T02:51:11;15.30;99.90
2935;DHT22;2462;51.456;7.248;2023-03-25T02:53:40;15.30;99.90
2935;DHT22;2462;51.456;7.248;2023-03-25T02:56:12;15.30;99.90
2935;DHT22;2462;51.456;7.248;2023-03-25T02:58:40;15.30;99.90
2935;DHT22;2462;51.456;7.248;2023-03-25T03:01:06;15.30;99.90
2935;DHT22;2462;51.456;7.248;2023-03-25T03:03:34;15.30;99.90
2935;DHT22;2462;51.456;7.248;2023-03-25T03:06:02;15.30;99.90
2935;DHT22;2462;51.456;7.248;2023-03-25T03:11:35;15.30;99.90
2935;DHT22;2462;51.456;7.248;2023-03-25T03:15:16;15.30;99.90
2935;DHT22;2462;51.456;7.248;2023-03-25T03:20:38;15.30;99.90
2935;DHT22;2462;51.456;7.248;2023-03-25T03:23:18;15.20;99.90
2935;DHT22;2462;51.456;7.248;2023-03-25T03:25:51;15.20;99.90
2935;DHT22;2462;51.456;7.248;2023-03-25T03:28:46;15.20;99.90
2935;DHT22;2462;51.456;7.248;2023-03-25T03:31:21;15.20;99.90
2935;DHT22;2462;51.456;7.248;2023-03-25T03:33:55;15.20;99.90
2935;DHT22;2462;51.456;7.248;2023-03-25T03:36:26;15.20;99.90
2935;DHT22;2462;51.456;7.248;2023-03-25T03:38:58;15.20;99.90
2935;DHT22;2462;51.456;7.248;2023-03-25T03:41:26;15.20;99.90
2935;DHT22;2462;51.456;7.248;2023-03-25T03:43:57;15.20;99.90
2935;DHT22;2462;51.456;7.248;2023-03-25T03:46:35;15.20;99.90
2935;DHT22;2462;51.456;7.248;2023-03-25T03:49:04;15.20;99.90
2935;DHT22;2462;51.456;7.248;2023-03-25T03:51:52;15.20;99.90
2935;DHT22;2462;51.456;7.248;2023-03-25T03:54:26;15.20;99.90
2935;DHT22;2462;51.456;7.248;2023-03-25T03:59:45;15.20;99.90
2935;DHT22;2462;51.456;7.248;2023-03-25T04:02:40;15.20;99.90
2935;DHT22;2462;51.456;7.248;2023-03-25T04:05:09;15.20;99.90
2935;DHT22;2462;51.456;7.248;2023-03-25T04:07:43;15.20;99.90
2935;DHT22;2462;51.456;7.248;2023-03-25T04:10:16;15.10;99.90
2935;DHT22;2462;51.456;7.248;2023-03-25T04:12:47;15.10;99.90
2935;DHT22;2462;51.456;7.248;2023-03-25T04:15:14;15.10;99.90
2935;DHT22;2462;51.456;7.248;2023-03-25T04:17:40;15.10;99.90
2935;DHT22;2462;51.456;7.248;2023-03-25T04:20:09;15.10;99.90
2935;DHT22;2462;51.456;7.248;2023-03-25T04:22:36;15.10;99.90
2935;DHT22;2462;51.456;7.248;2023-03-25T04:25:04;15.10;99.90
2935;DHT22;2462;51.456;7.248;2023-03-25T04:27:30;15.10;99.90
2935;DHT22;2462;51.456;7.248;2023-03-25T04:29:57;15.10;99.90
2935;DHT22;2462;51.456;7.248;2023-03-25T04:32:23;15.10;99.90
2935;DHT22;2462;51.456;7.248;2023-03-25T04:34:52;15.10;99.90
2935;DHT22;2462;51.456;7.248;2023-03-25T04:37:23;15.10;99.90
2935;DHT22;2462;51.456;7.248;2023-03-25T04:39:50;15.10;99.90
2935;DHT22;2462;51.456;7.248;2023-03-25T04:42:16;15.10;99.90
2935;DHT22;2462;51.456;7.248;2023-03-25T04:44:42;15.10;99.90
2935;DHT22;2462;51.456;7.248;2023-03-25T04:47:12;15.10;99.90
2935;DHT22;2462;51.456;7.248;2023-03-25T04:49:39;15.10;99.90
2935;DHT22;2462;51.456;7.248;2023-03-25T04:52:09;15.00;99.90
2935;DHT22;2462;51.456;7.248;2023-03-25T04:54:34;15.00;99.90
2935;DHT22;2462;51.456;7.248;2023-03-25T04:57:02;15.00;99.90
2935;DHT22;2462;51.456;7.248;2023-03-25T04:59:28;15.00;99.90
2935;DHT22;2462;51.456;7.248;2023-03-25T05:01:54;15.00;99.90
2935;DHT22;2462;51.456;7.248;2023-03-25T05:04:19;15.00;99.90
2935;DHT22;2462;51.456;7.248;2023-03-25T05:06:47;15.00;99.90
2935;DHT22;2462;51.456;7.248;2023-03-25T05:09:17;15.00;99.90
2935;DHT22;2462;51.456;7.248;2023-03-25T05:11:44;15.00;99.90
2935;DHT22;2462;51.456;7.248;2023-03-25T05:14:11;15.00;99.90
2935;DHT22;2462;51.456;7.248;2023-03-25T05:16:37;14.90;99.90
2935;DHT22;2462;51.456;7.248;2023-03-25T05:19:03;14.90;99.90
2935;DHT22;2462;51.456;7.248;2023-03-25T05:21:33;14.90;99.90
2935;DHT22;2462;51.456;7.248;2023-03-25T05:24:02;14.90;99.90
2935;DHT22;2462;51.456;7.248;2023-03-25T05:26:28;14.90;99.90
2935;DHT22;2462;51.456;7.248;2023-03-25T05:29:03;14.90;99.90
2935;DHT22;2462;51.456;7.248;2023-03-25T05:31:29;14.90;99.90
2935;DHT22;2462;51.456;7.248;2023-03-25T05:33:55;14.90;99.90
2935;DHT22;2462;51.456;7.248;2023-03-25T05:36:21;14.90;99.90
2935;DHT22;2462;51.456;7.248;2023-03-25T05:38:50;14.90;99.90
2935;DHT22;2462;51.456;7.248;2023-03-25T05:41:16;14.90;99.90
2935;DHT22;2462;51.456;7.248;2023-03-25T05:43:42;14.90;99.90
2935;DHT22;2462;51.456;7.248;2023-03-25T05:46:12;14.90;99.90
2935;DHT22;2462;51.456;7.248;2023-03-25T05:48:38;14.90;99.90
2935;DHT22;2462;51.456;7.248;2023-03-25T05:51:10;14.90;99.90
2935;DHT22;2462;51.456;7.248;2023-03-25T05:53:38;14.90;99.90
2935;DHT22;2462;51.456;7.248;2023-03-25T05:56:04;14.90;99.90
2935;DHT22;2462;51.456;7.248;2023-03-25T05:58:30;14.90;99.90
2935;DHT22;2462;51.456;7.248;2023-03-25T06:00:57;14.90;99.90
2935;DHT22;2462;51.456;7.248;2023-03-25T06:03:24;14.90;99.90
2935;DHT22;2462;51.456;7.248;2023-03-25T06:05:51;14.90;99.90
2935;DHT22;2462;51.456;7.248;2023-03-25T06:08:18;14.90;99.90
2935;DHT22;2462;51.456;7.248;2023-03-25T06:10:54;14.90;99.90
2935;DHT22;2462;51.456;7.248;2023-03-25T06:13:23;14.90;99.90
2935;DHT22;2462;51.456;7.248;2023-03-25T06:15:48;14.90;99.90
2935;DHT22;2462;51.456;7.248;2023-03-25T06:18:21;14.90;99.90
2935;DHT22;2462;51.456;7.248;2023-03-25T06:20:49;14.90;99.90
2935;DHT22;2462;51.456;7.248;2023-03-25T06:23:16;14.90;99.90
2935;DHT22;2462;51.456;7.248;2023-03-25T06:25:42;14.90;99.90
2935;DHT22;2462;51.456;7.248;2023-03-25T06:28:07;14.90;99.90
2935;DHT22;2462;51.456;7.248;2023-03-25T06:30:33;15.00;99.90
2935;DHT22;2462;51.456;7.248;2023-03-25T06:32:58;15.00;99.90
2935;DHT22;2462;51.456;7.248;2023-03-25T06:35:27;15.00;99.90
2935;DHT22;2462;51.456;7.248;2023-03-25T06:37:52;15.00;99.90
2935;DHT22;2462;51.456;7.248;2023-03-25T06:40:18;15.00;99.90
2935;DHT22;2462;51.456;7.248;2023-03-25T06:42:44;15.00;99.90
2935;DHT22;2462;51.456;7.248;2023-03-25T06:45:10;15.00;99.90
2935;DHT22;2462;51.456;7.248;2023-03-25T06:47:37;15.00;99.90
2935;DHT22;2462;51.456;7.248;2023-03-25T06:50:03;15.10;99.90
2935;DHT22;2462;51.456;7.248;2023-03-25T06:52:28;15.10;99.90
2935;DHT22;2462;51.456;7.248;2023-03-25T06:54:54;15.10;99.90
2935;DHT22;2462;51.456;7.248;2023-03-25T06:57:19;15.20;99.90
2935;DHT22;2462;51.456;7.248;2023-03-25T06:59:45;15.20;99.90
2935;DHT22;2462;51.456;7.248;2023-03-25T07:02:13;15.20;99.90
2935;DHT22;2462;51.456;7.248;2023-03-25T07:04:39;15.30;99.90
2935;DHT22;2462;51.456;7.248;2023-03-25T07:07:05;15.30;99.90
2935;DHT22;2462;51.456;7.248;2023-03-25T07:09:30;15.30;99.90
2935;DHT22;2462;51.456;7.248;2023-03-25T07:11:56;15.20;99.90
2935;DHT22;2462;51.456;7.248;2023-03-25T07:14:22;15.30;99.90
2935;DHT22;2462;51.456;7.248;2023-03-25T07:16:47;15.30;99.90
2935;DHT22;2462;51.456;7.248;2023-03-25T07:19:13;15.40;99.90
2935;DHT22;2462;51.456;7.248;2023-03-25T07:21:39;15.40;99.90
2935;DHT22;2462;51.456;7.248;2023-03-25T07:24:05;15.40;99.90
2935;DHT22;2462;51.456;7.248;2023-03-25T07:26:30;15.50;99.90
2935;DHT22;2462;51.456;7.248;2023-03-25T07:28:56;15.60;99.90
2935;DHT22;2462;51.456;7.248;2023-03-25T07:31:21;15.60;99.90
2935;DHT22;2462;51.456;7.248;2023-03-25T07:33:47;15.70;99.90
2935;DHT22;2462;51.456;7.248;2023-03-25T07:36:12;15.70;99.90
2935;DHT22;2462;51.456;7.248;2023-03-25T07:38:38;15.80;99.90
2935;DHT22;2462;51.456;7.248;2023-03-25T07:41:13;15.80;99.90
2935;DHT22;2462;51.456;7.248;2023-03-25T07:43:38;15.90;99.90
2935;DHT22;2462;51.456;7.248;2023-03-25T08:15:21;16.10;99.90
2935;DHT22;2462;51.456;7.248;2023-03-25T08:17:49;16.20;99.90
2935;DHT22;2462;51.456;7.248;2023-03-25T08:20:16;16.10;99.90
2935;DHT22;2462;51.456;7.248;2023-03-25T08:22:45;16.10;99.90
2935;DHT22;2462;51.456;7.248;2023-03-25T08:25:11;16.10;99.90
2935;DHT22;2462;51.456;7.248;2023-03-25T08:27:37;16.10;99.90
2935;DHT22;2462;51.456;7.248;2023-03-25T08:30:03;16.10;99.90
2935;DHT22;2462;51.456;7.248;2023-03-25T08:32:29;16.10;99.90
2935;DHT22;2462;51.456;7.248;2023-03-25T08:34:55;16.10;99.90
2935;DHT22;2462;51.456;7.248;2023-03-25T08:37:21;16.20;99.90
2935;DHT22;2462;51.456;7.248;2023-03-25T15:37:18;19.30;99.90
2935;DHT22;2462;51.456;7.248;2023-03-25T15:40:14;19.30;99.90
2935;DHT22;2462;51.456;7.248;2023-03-25T15:43:04;19.20;99.90
2935;DHT22;2462;51.456;7.248;2023-03-25T15:48:38;19.10;99.90
2935;DHT22;2462;51.456;7.248;2023-03-25T15:53:57;19.10;99.90
2935;DHT22;2462;51.456;7.248;2023-03-25T15:56:31;19.00;99.90
2935;DHT22;2462;51.456;7.248;2023-03-25T15:59:21;19.00;99.90
2935;DHT22;2462;51.456;7.248;2023-03-25T16:01:51;19.00;99.90
2935;DHT22;2462;51.456;7.248;2023-03-25T16:04:23;18.90;99.90
2935;DHT22;2462;51.456;7.248;2023-03-25T16:06:54;18.90;99.90
2935;DHT22;2462;51.456;7.248;2023-03-25T16:09:24;18.80;99.90
2935;DHT22;2462;51.456;7.248;2023-03-25T16:11:51;18.80;99.90
2935;DHT22;2462;51.456;7.248;2023-03-25T16:14:20;18.70;99.90
2935;DHT22;2462;51.456;7.248;2023-03-25T16:16:54;18.70;99.90
2935;DHT22;2462;51.456;7.248;2023-03-25T16:19:41;18.60;99.90
2935;DHT22;2462;51.456;7.248;2023-03-25T16:24:42;18.60;99.90
2935;DHT22;2462;51.456;7.248;2023-03-25T16:27:20;18.50;99.90
2935;DHT22;2462;51.456;7.248;2023-03-25T16:29:48;18.50;99.90
2935;DHT22;2462;51.456;7.248;2023-03-25T16:32:24;18.40;99.90
2935;DHT22;2462;51.456;7.248;2023-03-25T16:34:50;18.40;99.90
2935;DHT22;2462;51.456;7.248;2023-03-25T16:37:19;18.40;99.90
2935;DHT22;2462;51.456;7.248;2023-03-25T16:39:51;18.40;99.90
2935;DHT22;2462;51.456;7.248;2023-03-25T16:42:28;18.30;99.90
2935;DHT22;2462;51.456;7.248;2023-03-25T16:44:57;18.20;99.90
2935;DHT22;2462;51.456;7.248;2023-03-25T16:47:23;18.20;99.90
2935;DHT22;2462;51.456;7.248;2023-03-25T16:49:51;18.20;99.90
2935;DHT22;2462;51.456;7.248;2023-03-25T16:52:23;18.10;99.90
2935;DHT22;2462;51.456;7.248;2023-03-25T16:57:21;18.00;99.90
2935;DHT22;2462;51.456;7.248;2023-03-25T16:59:49;18.00;99.90
2935;DHT22;2462;51.456;7.248;2023-03-25T17:02:30;18.00;99.90
2935;DHT22;2462;51.456;7.248;2023-03-25T17:05:22;17.90;99.90
2935;DHT22;2462;51.456;7.248;2023-03-25T17:08:03;17.90;99.90
2935;DHT22;2462;51.456;7.248;2023-03-25T17:10:46;17.90;99.90
2935;DHT22;2462;51.456;7.248;2023-03-25T17:13:17;17.80;99.90
2935;DHT22;2462;51.456;7.248;2023-03-25T17:15:45;17.70;99.90
2935;DHT22;2462;51.456;7.248;2023-03-25T17:18:13;17.70;99.90
2935;DHT22;2462;51.456;7.248;2023-03-25T17:20:42;17.60;99.90
2935;DHT22;2462;51.456;7.248;2023-03-25T17:25:55;17.60;99.90
2935;DHT22;2462;51.456;7.248;2023-03-25T17:28:23;17.50;99.90
2935;DHT22;2462;51.456;7.248;2023-03-25T17:30:51;17.50;99.90
2935;DHT22;2462;51.456;7.248;2023-03-25T17:33:33;17.40;99.90
2935;DHT22;2462;51.456;7.248;2023-03-25T17:36:03;17.30;99.90
2935;DHT22;2462;51.456;7.248;2023-03-25T17:38:36;17.20;99.90
2935;DHT22;2462;51.456;7.248;2023-03-25T17:41:08;17.20;99.90
2935;DHT22;2462;51.456;7.248;2023-03-25T17:43:39;17.10;99.90
2935;DHT22;2462;51.456;7.248;2023-03-25T17:46:06;17.10;99.90
2935;DHT22;2462;51.456;7.248;2023-03-25T17:48:32;17.10;99.90
2935;DHT22;2462;51.456;7.248;2023-03-25T17:50:58;17.10;99.90
2935;DHT22;2462;51.456;7.248;2023-03-25T17:53:24;17.10;99.90
2935;DHT22;2462;51.456;7.248;2023-03-25T17:55:51;17.00;99.90
2935;DHT22;2462;51.456;7.248;2023-03-25T17:58:18;17.00;99.90
2935;DHT22;2462;51.456;7.248;2023-03-25T18:00:45;17.00;99.90
2935;DHT22;2462;51.456;7.248;2023-03-25T18:03:13;16.90;99.90
2935;DHT22;2462;51.456;7.248;2023-03-25T18:05:39;16.90;99.90
2935;DHT22;2462;51.456;7.248;2023-03-25T18:08:05;16.90;99.90
2935;DHT22;2462;51.456;7.248;2023-03-25T18:10:31;16.80;99.90
2935;DHT22;2462;51.456;7.248;2023-03-25T18:12:57;16.80;99.90
2935;DHT22;2462;51.456;7.248;2023-03-25T18:15:23;16.80;99.90
2935;DHT22;2462;51.456;7.248;2023-03-25T18:17:49;16.80;99.90
2935;DHT22;2462;51.456;7.248;2023-03-25T18:20:20;16.70;99.90
2935;DHT22;2462;51.456;7.248;2023-03-25T18:22:47;16.70;99.90
2935;DHT22;2462;51.456;7.248;2023-03-25T18:25:13;16.70;99.90
2935;DHT22;2462;51.456;7.248;2023-03-25T18:27:38;16.70;99.90
2935;DHT22;2462;51.456;7.248;2023-03-25T18:30:26;16.60;99.90
2935;DHT22;2462;51.456;7.248;2023-03-25T18:32:53;16.60;99.90
2935;DHT22;2462;51.456;7.248;2023-03-25T18:35:18;16.60;99.90
2935;DHT22;2462;51.456;7.248;2023-03-25T18:37:44;16.60;99.90
2935;DHT22;2462;51.456;7.248;2023-03-25T18:40:19;16.50;99.90
2935;DHT22;2462;51.456;7.248;2023-03-25T18:42:51;16.50;99.90
2935;DHT22;2462;51.456;7.248;2023-03-25T18:45:21;16.50;99.90
2935;DHT22;2462;51.456;7.248;2023-03-25T18:47:47;16.50;99.90
2935;DHT22;2462;51.456;7.248;2023-03-25T18:50:24;16.40;99.90
2935;DHT22;2462;51.456;7.248;2023-03-25T18:52:51;16.40;99.90
2935;DHT22;2462;51.456;7.248;2023-03-25T18:55:17;16.40;99.90
2935;DHT22;2462;51.456;7.248;2023-03-25T18:57:43;16.40;99.90
2935;DHT22;2462;51.456;7.248;2023-03-25T19:00:15;16.40;99.90
2935;DHT22;2462;51.456;7.248;2023-03-25T19:02:43;16.30;99.90
2935;DHT22;2462;51.456;7.248;2023-03-25T19:05:09;16.30;99.90
2935;DHT22;2462;51.456;7.248;2023-03-25T19:07:34;16.30;99.90
2935;DHT22;2462;51.456;7.248;2023-03-25T19:10:00;16.30;99.90
2935;DHT22;2462;51.456;7.248;2023-03-25T19:12:25;16.30;99.90
2935;DHT22;2462;51.456;7.248;2023-03-25T19:14:51;16.20;99.90
2935;DHT22;2462;51.456;7.248;2023-03-25T19:17:16;16.20;99.90
2935;DHT22;2462;51.456;7.248;2023-03-25T19:19:42;16.20;99.90
2935;DHT22;2462;51.456;7.248;2023-03-25T19:22:09;16.20;99.90
2935;DHT22;2462;51.456;7.248;2023-03-25T19:24:40;16.20;99.90
2935;DHT22;2462;51.456;7.248;2023-03-25T19:27:06;16.10;99.90
2935;DHT22;2462;51.456;7.248;2023-03-25T19:29:32;16.10;99.90
2935;DHT22;2462;51.456;7.248;2023-03-25T19:31:58;16.10;99.90
2935;DHT22;2462;51.456;7.248;2023-03-25T19:34:23;16.10;99.90
2935;DHT22;2462;51.456;7.248;2023-03-25T19:36:51;16.10;99.90
2935;DHT22;2462;51.456;7.248;2023-03-25T19:39:17;16.10;99.90
2935;DHT22;2462;51.456;7.248;2023-03-25T19:41:47;16.10;99.90
2935;DHT22;2462;51.456;7.248;2023-03-25T19:44:13;16.10;99.90
2935;DHT22;2462;51.456;7.248;2023-03-25T19:46:39;16.00;99.90
2935;DHT22;2462;51.456;7.248;2023-03-25T19:49:05;16.00;99.90
2935;DHT22;2462;51.456;7.248;2023-03-25T19:51:31;16.00;99.90
2935;DHT22;2462;51.456;7.248;2023-03-25T19:53:56;16.00;99.90
2935;DHT22;2462;51.456;7.248;2023-03-25T19:56:22;16.00;99.90
2935;DHT22;2462;51.456;7.248;2023-03-25T19:58:48;16.00;99.90
2935;DHT22;2462;51.456;7.248;2023-03-25T20:01:13;16.00;99.90
2935;DHT22;2462;51.456;7.248;2023-03-25T20:03:39;16.00;99.90
2935;DHT22;2462;51.456;7.248;2023-03-25T20:06:06;16.00;99.90
2935;DHT22;2462;51.456;7.248;2023-03-25T20:08:31;15.90;99.90
2935;DHT22;2462;51.456;7.248;2023-03-25T20:10:58;15.90;99.90
2935;DHT22;2462;51.456;7.248;2023-03-25T20:13:23;15.90;99.90
2935;DHT22;2462;51.456;7.248;2023-03-25T20:15:50;15.90;99.90
2935;DHT22;2462;51.456;7.248;2023-03-25T20:18:16;15.90;99.90
2935;DHT22;2462;51.456;7.248;2023-03-25T20:20:42;15.80;99.90
2935;DHT22;2462;51.456;7.248;2023-03-25T20:23:07;15.80;99.90
2935;DHT22;2462;51.456;7.248;2023-03-25T20:25:33;15.80;99.90
2935;DHT22;2462;51.456;7.248;2023-03-25T20:27:59;15.80;99.90
2935;DHT22;2462;51.456;7.248;2023-03-25T20:30:24;15.80;99.90
2935;DHT22;2462;51.456;7.248;2023-03-25T20:32:50;15.80;99.90
2935;DHT22;2462;51.456;7.248;2023-03-25T20:35:17;15.80;99.90
2935;DHT22;2462;51.456;7.248;2023-03-25T20:37:44;15.80;99.90
2935;DHT22;2462;51.456;7.248;2023-03-25T20:40:13;15.70;99.90
2935;DHT22;2462;51.456;7.248;2023-03-25T20:42:41;15.70;99.90
2935;DHT22;2462;51.456;7.248;2023-03-25T20:45:08;15.70;99.90
2935;DHT22;2462;51.456;7.248;2023-03-25T20:47:34;15.70;99.90
2935;DHT22;2462;51.456;7.248;2023-03-25T20:50:00;15.70;99.90
2935;DHT22;2462;51.456;7.248;2023-03-25T20:52:25;15.70;99.90
2935;DHT22;2462;51.456;7.248;2023-03-25T20:54:53;15.60;99.90
2935;DHT22;2462;51.456;7.248;2023-03-25T20:57:19;15.60;99.90
2935;DHT22;2462;51.456;7.248;2023-03-25T20:59:45;15.60;99.90
2935;DHT22;2462;51.456;7.248;2023-03-25T21:02:10;15.60;99.90
2935;DHT22;2462;51.456;7.248;2023-03-25T21:04:36;15.60;99.90
2935;DHT22;2462;51.456;7.248;2023-03-25T21:07:02;15.60;99.90
2935;DHT22;2462;51.456;7.248;2023-03-25T21:09:28;15.60;99.90
2935;DHT22;2462;51.456;7.248;2023-03-25T21:11:53;15.60;99.90
2935;DHT22;2462;51.456;7.248;2023-03-25T21:14:19;15.60;99.90
2935;DHT22;2462;51.456;7.248;2023-03-25T21:16:45;15.50;99.90
2935;DHT22;2462;51.456;7.248;2023-03-25T21:19:11;15.50;99.90
2935;DHT22;2462;51.456;7.248;2023-03-25T21:21:37;15.50;99.90
2935;DHT22;2462;51.456;7.248;2023-03-25T21:24:03;15.50;99.90
2935;DHT22;2462;51.456;7.248;2023-03-25T21:26:29;15.50;99.90
2935;DHT22;2462;51.456;7.248;2023-03-25T21:28:55;15.40;99.90
2935;DHT22;2462;51.456;7.248;2023-03-25T21:31:21;15.40;99.90
2935;DHT22;2462;51.456;7.248;2023-03-25T21:34:20;15.40;99.90
2935;DHT22;2462;51.456;7.248;2023-03-25T21:36:52;15.40;99.90
2935;DHT22;2462;51.456;7.248;2023-03-25T21:39:18;15.40;99.90
2935;DHT22;2462;51.456;7.248;2023-03-25T21:41:43;15.40;99.90
2935;DHT22;2462;51.456;7.248;2023-03-25T21:44:18;15.30;99.90
2935;DHT22;2462;51.456;7.248;2023-03-25T21:46:43;15.40;99.90
2935;DHT22;2462;51.456;7.248;2023-03-25T21:49:09;15.30;99.90
2935;DHT22;2462;51.456;7.248;2023-03-25T21:51:40;15.30;99.90
2935;DHT22;2462;51.456;7.248;2023-03-25T21:54:14;15.30;99.90
2935;DHT22;2462;51.456;7.248;2023-03-25T21:56:40;15.30;99.90
2935;DHT22;2462;51.456;7.248;2023-03-25T21:59:07;15.30;99.90
2935;DHT22;2462;51.456;7.248;2023-03-25T22:01:35;15.30;99.90
2935;DHT22;2462;51.456;7.248;2023-03-25T22:04:05;15.30;99.90
2935;DHT22;2462;51.456;7.248;2023-03-25T22:06:31;15.30;99.90
2935;DHT22;2462;51.456;7.248;2023-03-25T22:09:02;15.20;99.90
2935;DHT22;2462;51.456;7.248;2023-03-25T22:11:31;15.20;99.90
2935;DHT22;2462;51.456;7.248;2023-03-25T22:14:00;15.20;99.90
2935;DHT22;2462;51.456;7.248;2023-03-25T22:16:26;15.20;99.90
2935;DHT22;2462;51.456;7.248;2023-03-25T22:18:55;15.20;99.90
2935;DHT22;2462;51.456;7.248;2023-03-25T22:21:25;15.10;99.90
2935;DHT22;2462;51.456;7.248;2023-03-25T22:23:55;15.10;99.90
2935;DHT22;2462;51.456;7.248;2023-03-25T22:26:22;15.10;99.90
2935;DHT22;2462;51.456;7.248;2023-03-25T22:28:53;15.10;99.90
2935;DHT22;2462;51.456;7.248;2023-03-25T22:31:24;15.10;99.90
2935;DHT22;2462;51.456;7.248;2023-03-25T22:33:58;15.10;99.90
2935;DHT22;2462;51.456;7.248;2023-03-25T22:36:37;15.10;99.90
2935;DHT22;2462;51.456;7.248;2023-03-25T22:39:03;15.00;99.90
2935;DHT22;2462;51.456;7.248;2023-03-25T22:41:29;15.00;99.90
2935;DHT22;2462;51.456;7.248;2023-03-25T22:43:55;15.10;99.90
2935;DHT22;2462;51.456;7.248;2023-03-25T22:46:22;15.00;99.90
2935;DHT22;2462;51.456;7.248;2023-03-25T22:48:48;15.00;99.90
2935;DHT22;2462;51.456;7.248;2023-03-25T22:51:16;15.00;99.90
2935;DHT22;2462;51.456;7.248;2023-03-25T22:53:49;15.00;99.90
2935;DHT22;2462;51.456;7.248;2023-03-25T22:56:15;14.90;99.90
2935;DHT22;2462;51.456;7.248;2023-03-25T22:58:43;14.90;99.90
2935;DHT22;2462;51.456;7.248;2023-03-25T23:01:24;14.90;99.90
2935;DHT22;2462;51.456;7.248;2023-03-25T23:03:53;14.90;99.90
2935;DHT22;2462;51.456;7.248;2023-03-25T23:06:22;14.90;99.90
2935;DHT22;2462;51.456;7.248;2023-03-25T23:08:48;14.90;99.90
2935;DHT22;2462;51.456;7.248;2023-03-25T23:11:20;14.90;99.90
2935;DHT22;2462;51.456;7.248;2023-03-25T23:13:49;14.90;99.90
2935;DHT22;2462;51.456;7.248;2023-03-25T23:16:17;14.90;99.90
2935;DHT22;2462;51.456;7.248;2023-03-25T23:18:43;14.90;99.90
2935;DHT22;2462;51.456;7.248;2023-03-25T23:21:18;14.90;99.90
2935;DHT22;2462;51.456;7.248;2023-03-25T23:23:48;14.80;99.90
2935;DHT22;2462;51.456;7.248;2023-03-25T23:26:17;14.80;99.90
2935;DHT22;2462;51.456;7.248;2023-03-25T23:28:45;14.80;99.90
2935;DHT22;2462;51.456;7.248;2023-03-25T23:31:17;14.80;99.90
2935;DHT22;2462;51.456;7.248;2023-03-25T23:33:48;14.80;99.90
2935;DHT22;2462;51.456;7.248;2023-03-25T23:36:17;14.80;99.90
2935;DHT22;2462;51.456;7.248;2023-03-25T23:38:44;14.80;99.90
2935;DHT22;2462;51.456;7.248;2023-03-25T23:41:17;14.80;99.90
2935;DHT22;2462;51.456;7.248;2023-03-25T23:43:46;14.80;99.90
2935;DHT22;2462;51.456;7.248;2023-03-25T23:46:13;14.80;99.90
2935;DHT22;2462;51.456;7.248;2023-03-25T23:48:42;14.80;99.90
2935;DHT22;2462;51.456;7.248;2023-03-25T23:51:10;14.80;99.90
2935;DHT22;2462;51.456;7.248;2023-03-25T23:53:45;14.80;99.90
2935;DHT22;2462;51.456;7.248;2023-03-25T23:56:13;14.80;99.90
2935;DHT22;2462;51.456;7.248;2023-03-25T23:58:38;14.80;99.90
